Time;durP1;ratioP1;P1;durP2;ratioP2;P2;SDS_P1;SDS_P2;PMS_P1;PMS_P2;Temp;Humidity;BMP_temperature;BMP_pressure;BME280_temperature;BME280_humidity;BME280_pressure;Samples;Min_cycle;Max_cycle;Signal;HPM_P1;HPM_P2
2023/05/06 00:00:05;;;;;;;3.10;2.80;;;;;;;;;;4992493;28;20390;-80
2023/05/06 00:02:31;;;;;;;3.50;3.00;;;;;;;;;;4992635;28;20394;-80
2023/05/06 00:04:57;;;;;;;2.97;2.78;;;;;;;;;;4992452;28;20397;-80
2023/05/06 00:07:23;;;;;;;2.85;2.63;;;;;;;;;;4972532;28;20409;-80
2023/05/06 00:09:49;;;;;;;3.30;2.83;;;;;;;;;;4992347;28;20947;-80
2023/05/06 00:12:15;;;;;;;2.60;2.40;;;;;;;;;;4992306;28;20402;-80
2023/05/06 00:14:41;;;;;;;3.17;2.70;;;;;;;;;;4992482;28;21020;-80
2023/05/06 00:17:07;;;;;;;2.70;2.50;;;;;;;;;;4974104;28;20447;-80
2023/05/06 00:19:33;;;;;;;2.90;2.60;;;;;;;;;;4992329;28;20383;-80
2023/05/06 00:22:00;;;;;;;3.13;2.38;;;;;;;;;;4992183;28;20867;-80
2023/05/06 00:24:26;;;;;;;2.50;2.30;;;;;;;;;;4991767;28;20378;-80
2023/05/06 00:26:52;;;;;;;2.50;2.30;;;;;;;;;;4992227;28;20390;-80
2023/05/06 00:29:18;;;;;;;2.35;2.22;;;;;;;;;;4992130;28;20425;-80
2023/05/06 00:31:44;;;;;;;2.53;2.42;;;;;;;;;;4992088;28;20430;-80
2023/05/06 00:34:11;;;;;;;2.70;2.50;;;;;;;;;;4992267;28;20394;-80
2023/05/06 00:36:37;;;;;;;3.30;2.63;;;;;;;;;;4991962;28;20406;-81
2023/05/06 00:39:04;;;;;;;3.10;2.80;;;;;;;;;;4971233;28;20766;-81
2023/05/06 00:41:31;;;;;;;2.72;2.53;;;;;;;;;;4989487;28;20394;-80
2023/05/06 00:43:57;;;;;;;2.75;2.20;;;;;;;;;;4993337;28;20409;-80
2023/05/06 00:46:23;;;;;;;2.50;2.30;;;;;;;;;;4992750;28;20872;-80
2023/05/06 00:48:50;;;;;;;3.03;2.50;;;;;;;;;;4974609;28;20796;-80
2023/05/06 00:51:16;;;;;;;2.50;2.30;;;;;;;;;;4991977;28;20456;-80
2023/05/06 00:53:45;;;;;;;2.60;2.40;;;;;;;;;;4971446;28;20420;-80
2023/05/06 00:56:11;;;;;;;2.63;2.43;;;;;;;;;;4983246;28;20903;-80
2023/05/06 00:58:37;;;;;;;2.92;2.72;;;;;;;;;;4991889;28;20383;-80
2023/05/06 01:01:03;;;;;;;3.10;2.60;;;;;;;;;;4991890;28;20386;-80
2023/05/06 01:03:30;;;;;;;2.97;2.77;;;;;;;;;;4991701;28;20383;-79
2023/05/06 01:06:07;;;;;;;2.90;2.70;;;;;;;;;;4991916;28;20740;-81
2023/05/06 01:08:42;;;;;;;2.72;2.53;;;;;;;;;;4991699;28;20504;-80
2023/05/06 01:11:20;;;;;;;3.10;2.80;;;;;;;;;;4991885;28;20433;-80
2023/05/06 01:14:00;;;;;;;2.78;2.58;;;;;;;;;;4991572;28;20383;-80
2023/05/06 01:16:28;;;;;;;2.95;2.65;;;;;;;;;;4991716;28;20468;-81
2023/05/06 01:18:54;;;;;;;2.70;2.50;;;;;;;;;;4991535;28;20469;-80
2023/05/06 01:21:20;;;;;;;2.70;2.50;;;;;;;;;;4991230;28;20898;-79
2023/05/06 01:24:05;;;;;;;3.30;2.67;;;;;;;;;;4991381;28;20856;-79
2023/05/06 01:26:31;;;;;;;2.60;2.40;;;;;;;;;;4981229;28;20393;-78
2023/05/06 01:28:57;;;;;;;2.92;2.50;;;;;;;;;;4991356;28;20845;-80
2023/05/06 01:31:25;;;;;;;2.90;2.60;;;;;;;;;;4990815;28;20414;-80
2023/05/06 01:33:54;;;;;;;2.97;2.65;;;;;;;;;;4990517;28;20444;-79
2023/05/06 01:36:20;;;;;;;2.47;2.28;;;;;;;;;;4989018;28;20431;-79
2023/05/06 01:39:04;;;;;;;2.60;2.28;;;;;;;;;;5002026;28;20398;-79
2023/05/06 01:41:35;;;;;;;2.42;2.22;;;;;;;;;;4990963;28;20426;-79
2023/05/06 01:44:03;;;;;;;2.40;2.20;;;;;;;;;;4984496;28;20409;-80
2023/05/06 01:46:30;;;;;;;2.38;2.17;;;;;;;;;;4993871;28;20397;-79
2023/05/06 01:48:57;;;;;;;2.65;2.38;;;;;;;;;;4991655;28;20387;-79
2023/05/06 01:51:23;;;;;;;2.28;2.13;;;;;;;;;;4992421;28;20441;-79
2023/05/06 01:53:49;;;;;;;2.33;2.13;;;;;;;;;;4994988;28;20387;-80
2023/05/06 01:56:16;;;;;;;2.60;2.40;;;;;;;;;;4994195;28;20414;-80
2023/05/06 01:58:42;;;;;;;2.42;2.20;;;;;;;;;;4991375;28;20423;-79
2023/05/06 02:01:08;;;;;;;2.65;2.45;;;;;;;;;;4985741;28;20406;-79
2023/05/06 02:03:36;;;;;;;2.67;2.50;;;;;;;;;;4982956;28;20945;-79
2023/05/06 02:06:02;;;;;;;2.72;2.53;;;;;;;;;;4993321;28;20391;-79
2023/05/06 02:08:28;;;;;;;2.45;2.30;;;;;;;;;;4994800;28;20444;-80
2023/05/06 02:10:54;;;;;;;2.50;2.40;;;;;;;;;;4994818;28;20535;-79
2023/05/06 02:13:20;;;;;;;2.20;2.10;;;;;;;;;;4994516;28;20725;-79
2023/05/06 02:15:46;;;;;;;2.70;2.38;;;;;;;;;;4994368;28;20464;-79
2023/05/06 02:18:12;;;;;;;2.47;2.30;;;;;;;;;;4994373;28;20397;-79
2023/05/06 02:20:38;;;;;;;2.33;2.13;;;;;;;;;;4994419;28;20394;-80
2023/05/06 02:23:04;;;;;;;2.83;2.10;;;;;;;;;;4994310;28;20383;-79
2023/05/06 02:25:30;;;;;;;2.60;2.50;;;;;;;;;;4994266;28;20688;-80
2023/05/06 02:27:56;;;;;;;3.20;2.60;;;;;;;;;;4994455;28;20478;-79
2023/05/06 02:30:22;;;;;;;2.67;2.47;;;;;;;;;;4994313;28;20465;-80
2023/05/06 02:32:48;;;;;;;2.70;2.50;;;;;;;;;;4994069;28;20379;-81
2023/05/06 02:35:14;;;;;;;3.40;3.10;;;;;;;;;;4994224;28;20809;-80
2023/05/06 02:37:40;;;;;;;2.83;2.63;;;;;;;;;;4994201;28;20476;-79
2023/05/06 02:40:06;;;;;;;2.47;2.27;;;;;;;;;;4993844;28;20383;-79
2023/05/06 02:42:34;;;;;;;2.80;2.60;;;;;;;;;;4993988;28;20422;-80
2023/05/06 02:45:00;;;;;;;2.55;2.22;;;;;;;;;;4994247;28;20387;-79
2023/05/06 02:47:26;;;;;;;2.80;2.60;;;;;;;;;;4994422;28;20387;-80
2023/05/06 02:49:52;;;;;;;2.78;2.50;;;;;;;;;;4993882;28;20393;-80
2023/05/06 02:52:18;;;;;;;2.67;2.47;;;;;;;;;;4993892;28;20405;-80
2023/05/06 02:54:44;;;;;;;2.70;2.50;;;;;;;;;;4973573;28;20384;-79
2023/05/06 02:57:10;;;;;;;2.87;2.27;;;;;;;;;;4993812;28;20910;-79
2023/05/06 02:59:36;;;;;;;3.08;2.53;;;;;;;;;;4993802;28;20469;-79
2023/05/06 03:02:02;;;;;;;4.32;2.17;;;;;;;;;;4993670;28;20385;-79
2023/05/06 03:04:28;;;;;;;3.38;2.28;;;;;;;;;;4993558;28;20386;-79
2023/05/06 03:06:54;;;;;;;2.53;2.33;;;;;;;;;;4975449;28;20396;-79
2023/05/06 03:09:20;;;;;;;2.67;2.17;;;;;;;;;;4993574;28;20422;-79
2023/05/06 03:11:46;;;;;;;2.65;2.45;;;;;;;;;;4972919;28;20439;-79
2023/05/06 03:14:12;;;;;;;2.60;2.40;;;;;;;;;;4993439;28;20441;-78
2023/05/06 03:16:38;;;;;;;2.83;2.60;;;;;;;;;;4993406;28;20920;-79
2023/05/06 03:19:05;;;;;;;2.50;2.30;;;;;;;;;;4972742;28;20509;-78
2023/05/06 03:21:31;;;;;;;2.20;2.00;;;;;;;;;;4984412;28;20471;-79
2023/05/06 03:23:57;;;;;;;3.78;2.15;;;;;;;;;;4993159;28;20441;-79
2023/05/06 03:26:23;;;;;;;2.55;2.08;;;;;;;;;;4993350;28;20390;-79
2023/05/06 03:28:49;;;;;;;2.45;2.25;;;;;;;;;;4992889;28;20868;-78
2023/05/06 03:31:15;;;;;;;2.50;2.30;;;;;;;;;;4975569;28;20398;-78
2023/05/06 03:33:41;;;;;;;2.28;2.17;;;;;;;;;;4993017;28;20860;-78
2023/05/06 03:36:07;;;;;;;2.40;2.15;;;;;;;;;;4992923;28;20453;-79
2023/05/06 03:38:33;;;;;;;2.38;2.10;;;;;;;;;;4992705;28;20423;-79
2023/05/06 03:40:59;;;;;;;3.25;2.20;;;;;;;;;;4975041;28;20446;-78
2023/05/06 03:43:25;;;;;;;2.42;2.13;;;;;;;;;;4989830;28;20459;-80
2023/05/06 03:45:51;;;;;;;2.30;2.10;;;;;;;;;;4984254;28;20383;-79
2023/05/06 03:48:17;;;;;;;2.10;2.00;;;;;;;;;;4992145;28;20737;-80
2023/05/06 03:50:43;;;;;;;2.30;2.10;;;;;;;;;;4991694;28;20394;-80
2023/05/06 03:53:09;;;;;;;2.42;2.10;;;;;;;;;;4990560;28;20394;-79
2023/05/06 03:55:35;;;;;;;2.70;1.90;;;;;;;;;;4992010;28;20524;-79
2023/05/06 03:58:01;;;;;;;2.13;2.03;;;;;;;;;;4991389;28;20418;-80
2023/05/06 04:00:27;;;;;;;2.10;1.98;;;;;;;;;;4990827;28;20860;-80
2023/05/06 04:02:53;;;;;;;2.65;1.90;;;;;;;;;;4991815;28;20381;-80
2023/05/06 04:05:19;;;;;;;2.00;1.90;;;;;;;;;;4991721;28;20441;-77
2023/05/06 04:07:45;;;;;;;2.90;2.08;;;;;;;;;;4991315;28;20386;-80
2023/05/06 04:10:11;;;;;;;3.05;1.77;;;;;;;;;;4991885;28;20840;-80
2023/05/06 04:12:37;;;;;;;2.20;2.00;;;;;;;;;;4992252;28;20427;-80
2023/05/06 04:15:03;;;;;;;2.05;1.85;;;;;;;;;;4975132;28;20509;-80
2023/05/06 04:17:30;;;;;;;2.05;1.95;;;;;;;;;;4992288;28;20891;-80
2023/05/06 04:19:56;;;;;;;3.15;2.10;;;;;;;;;;4992248;28;20792;-80
2023/05/06 04:22:22;;;;;;;2.05;1.95;;;;;;;;;;4991634;28;20382;-80
2023/05/06 04:24:48;;;;;;;2.30;2.10;;;;;;;;;;4992470;28;20389;-80
2023/05/06 04:27:14;;;;;;;2.08;1.98;;;;;;;;;;4991208;28;20398;-80
2023/05/06 04:29:40;;;;;;;2.05;1.95;;;;;;;;;;4992379;28;20402;-79
2023/05/06 04:32:09;;;;;;;1.98;1.88;;;;;;;;;;4992092;28;20812;-81
2023/05/06 04:34:35;;;;;;;2.13;1.90;;;;;;;;;;4989844;28;20394;-80
2023/05/06 04:37:01;;;;;;;2.58;1.92;;;;;;;;;;4991999;28;20410;-80
2023/05/06 04:39:27;;;;;;;1.70;1.60;;;;;;;;;;4989881;28;20410;-79
2023/05/06 04:41:53;;;;;;;1.92;1.83;;;;;;;;;;4992492;28;20928;-80
2023/05/06 04:44:19;;;;;;;2.00;1.50;;;;;;;;;;4991822;28;20496;-80
2023/05/06 04:46:46;;;;;;;3.40;1.80;;;;;;;;;;4991963;28;20387;-81
2023/05/06 04:49:12;;;;;;;2.58;1.67;;;;;;;;;;4992247;28;20397;-80
2023/05/06 04:51:38;;;;;;;1.95;1.75;;;;;;;;;;4992314;28;20394;-80
2023/05/06 04:54:04;;;;;;;1.90;1.50;;;;;;;;;;4991633;28;20394;-80
2023/05/06 04:56:30;;;;;;;1.50;1.40;;;;;;;;;;4991392;28;20422;-80
2023/05/06 04:58:56;;;;;;;1.55;1.45;;;;;;;;;;4992096;28;20386;-81
2023/05/06 05:01:22;;;;;;;1.50;1.40;;;;;;;;;;4992044;28;20382;-80
2023/05/06 05:03:49;;;;;;;3.70;1.40;;;;;;;;;;4990619;28;20932;-80
2023/05/06 05:06:15;;;;;;;1.95;1.70;;;;;;;;;;4991855;28;20391;-80
2023/05/06 05:08:41;;;;;;;1.75;1.65;;;;;;;;;;4991511;28;20394;-80
2023/05/06 05:11:07;;;;;;;2.38;1.50;;;;;;;;;;4991946;28;20461;-81
2023/05/06 05:13:33;;;;;;;1.60;1.50;;;;;;;;;;4995571;28;20413;-80
2023/05/06 05:15:59;;;;;;;2.60;1.50;;;;;;;;;;4993792;28;20442;-80
2023/05/06 05:18:27;;;;;;;1.70;1.60;;;;;;;;;;4995600;28;20422;-80
2023/05/06 05:20:53;;;;;;;1.73;1.63;;;;;;;;;;4995715;28;20397;-80
2023/05/06 05:23:20;;;;;;;2.90;1.70;;;;;;;;;;4995399;28;20391;-79
2023/05/06 05:25:46;;;;;;;1.80;1.70;;;;;;;;;;4995589;28;20441;-80
2023/05/06 05:28:12;;;;;;;2.38;1.70;;;;;;;;;;4995695;28;20860;-80
2023/05/06 05:30:38;;;;;;;1.92;1.73;;;;;;;;;;4995562;28;20397;-80
2023/05/06 05:33:04;;;;;;;1.80;1.70;;;;;;;;;;4994869;28;20421;-80
2023/05/06 05:35:30;;;;;;;1.70;1.60;;;;;;;;;;4981606;28;20398;-80
2023/05/06 05:37:56;;;;;;;1.60;1.50;;;;;;;;;;4995178;28;20875;-80
2023/05/06 05:40:22;;;;;;;2.10;1.90;;;;;;;;;;4995261;28;20406;-79
2023/05/06 05:42:48;;;;;;;1.50;1.40;;;;;;;;;;4995006;28;20488;-79
2023/05/06 05:45:14;;;;;;;2.00;1.80;;;;;;;;;;4994942;28;20399;-80
2023/05/06 05:47:40;;;;;;;1.75;1.65;;;;;;;;;;4997195;28;20401;-80
2023/05/06 05:50:06;;;;;;;2.13;1.80;;;;;;;;;;4994464;28;20398;-81
2023/05/06 05:52:32;;;;;;;2.00;1.50;;;;;;;;;;4992626;28;20408;-78
2023/05/06 05:54:58;;;;;;;1.60;1.50;;;;;;;;;;4993074;28;20485;-81
2023/05/06 05:57:24;;;;;;;2.10;1.60;;;;;;;;;;4994054;28;20767;-79
2023/05/06 05:59:50;;;;;;;2.10;1.90;;;;;;;;;;4993679;28;20432;-79
2023/05/06 06:02:16;;;;;;;2.25;1.80;;;;;;;;;;4994042;28;20391;-80
2023/05/06 06:04:43;;;;;;;1.80;1.70;;;;;;;;;;4994888;28;20383;-79
2023/05/06 06:07:09;;;;;;;1.83;1.73;;;;;;;;;;4994498;28;20871;-79
2023/05/06 06:09:35;;;;;;;2.93;1.90;;;;;;;;;;4994810;28;21106;-79
2023/05/06 06:12:01;;;;;;;2.30;2.17;;;;;;;;;;4994425;28;20386;-79
2023/05/06 06:14:27;;;;;;;2.25;1.90;;;;;;;;;;4994613;28;20382;-79
2023/05/06 06:16:53;;;;;;;2.15;2.00;;;;;;;;;;4994444;28;20990;-80
2023/05/06 06:19:19;;;;;;;1.83;1.73;;;;;;;;;;4994248;28;20383;-80
2023/05/06 06:21:45;;;;;;;2.53;1.90;;;;;;;;;;4994246;28;20870;-80
2023/05/06 06:24:12;;;;;;;6.13;2.10;;;;;;;;;;4993222;28;20867;-79
2023/05/06 06:26:38;;;;;;;2.22;2.03;;;;;;;;;;4993109;28;20757;-79
2023/05/06 06:29:04;;;;;;;2.22;2.03;;;;;;;;;;4994275;28;20408;-80
2023/05/06 06:31:30;;;;;;;2.22;2.00;;;;;;;;;;4994329;28;20513;-79
2023/05/06 06:33:56;;;;;;;2.20;1.90;;;;;;;;;;4994093;28;20394;-80
2023/05/06 06:36:22;;;;;;;3.90;3.60;;;;;;;;;;4976708;28;20418;-80
2023/05/06 06:38:48;;;;;;;2.83;2.10;;;;;;;;;;4996671;28;20386;-80
2023/05/06 06:41:14;;;;;;;1.90;1.80;;;;;;;;;;4978050;28;20884;-80
2023/05/06 06:43:40;;;;;;;2.10;2.00;;;;;;;;;;4993906;28;20481;-80
2023/05/06 06:46:06;;;;;;;2.42;1.90;;;;;;;;;;4993967;28;20386;-80
2023/05/06 06:48:32;;;;;;;2.33;2.20;;;;;;;;;;4976766;28;20904;-80
2023/05/06 06:50:58;;;;;;;2.10;2.00;;;;;;;;;;4993805;28;20532;-80
2023/05/06 06:53:24;;;;;;;2.47;2.28;;;;;;;;;;4993821;28;20465;-80
2023/05/06 06:55:50;;;;;;;3.40;2.70;;;;;;;;;;4993823;28;21075;-80
2023/05/06 06:58:16;;;;;;;3.30;3.00;;;;;;;;;;4993753;28;20390;-80
2023/05/06 07:00:42;;;;;;;2.85;2.65;;;;;;;;;;4993822;28;20436;-80
2023/05/06 07:03:08;;;;;;;2.70;2.50;;;;;;;;;;4993448;28;20473;-77
2023/05/06 07:05:34;;;;;;;3.42;3.13;;;;;;;;;;4992442;28;20379;-80
2023/05/06 07:08:00;;;;;;;3.90;3.50;;;;;;;;;;4993576;28;20390;-80
2023/05/06 07:10:26;;;;;;;4.72;4.40;;;;;;;;;;4993109;28;20721;-79
2023/05/06 07:12:52;;;;;;;5.77;5.27;;;;;;;;;;4992079;28;20741;-80
2023/05/06 07:15:18;;;;;;;5.22;4.32;;;;;;;;;;4993537;28;20714;-80
2023/05/06 07:17:44;;;;;;;5.88;5.40;;;;;;;;;;4993338;28;20954;-78
2023/05/06 07:20:11;;;;;;;5.75;5.25;;;;;;;;;;4993280;28;20538;-78
2023/05/06 07:22:37;;;;;;;5.70;5.20;;;;;;;;;;4993164;28;20390;-79
2023/05/06 07:25:04;;;;;;;6.68;6.10;;;;;;;;;;4992968;28;20397;-79
2023/05/06 07:27:30;;;;;;;8.38;7.57;;;;;;;;;;4993177;28;20392;-79
2023/05/06 07:29:56;;;;;;;11.75;8.65;;;;;;;;;;4992698;28;20425;-80
2023/05/06 07:32:22;;;;;;;10.80;8.95;;;;;;;;;;4992340;28;20855;-79
2023/05/06 07:34:48;;;;;;;10.00;9.07;;;;;;;;;;4992757;28;20392;-79
2023/05/06 07:37:14;;;;;;;9.88;8.75;;;;;;;;;;4992842;28;20418;-79
2023/05/06 07:39:40;;;;;;;11.38;9.43;;;;;;;;;;4992452;28;20445;-79
2023/05/06 07:42:06;;;;;;;9.67;8.83;;;;;;;;;;4992303;28;20808;-80
2023/05/06 07:44:33;;;;;;;10.90;9.65;;;;;;;;;;4992492;28;20993;-80
2023/05/06 07:46:59;;;;;;;10.63;9.53;;;;;;;;;;4992609;28;20485;-79
2023/05/06 07:49:27;;;;;;;13.32;10.88;;;;;;;;;;4992928;28;20813;-79
2023/05/06 07:51:53;;;;;;;11.57;10.47;;;;;;;;;;4998819;28;20387;-77
2023/05/06 07:54:19;;;;;;;11.50;10.30;;;;;;;;;;4992815;28;20386;-79
2023/05/06 07:56:45;;;;;;;11.85;10.65;;;;;;;;;;4992459;28;20891;-78
2023/05/06 07:59:11;;;;;;;9.80;8.80;;;;;;;;;;4991390;28;20486;-79
2023/05/06 08:01:37;;;;;;;9.85;8.82;;;;;;;;;;4992688;28;20382;-79
2023/05/06 08:04:03;;;;;;;9.80;9.00;;;;;;;;;;4992683;28;20392;-80
2023/05/06 08:06:31;;;;;;;8.30;7.60;;;;;;;;;;4992802;28;20394;-79
2023/05/06 08:08:57;;;;;;;7.82;7.22;;;;;;;;;;4992144;28;20391;-80
2023/05/06 08:11:23;;;;;;;6.97;6.47;;;;;;;;;;4990850;28;20409;-79
2023/05/06 08:13:49;;;;;;;8.32;6.78;;;;;;;;;;4992335;28;20386;-80
2023/05/06 08:16:15;;;;;;;5.25;4.90;;;;;;;;;;4991282;28;20516;-80
2023/05/06 08:18:41;;;;;;;5.43;4.93;;;;;;;;;;4991718;28;20390;-81
2023/05/06 08:21:07;;;;;;;6.07;5.57;;;;;;;;;;4973926;28;20899;-78
2023/05/06 08:23:33;;;;;;;6.45;5.93;;;;;;;;;;4990059;28;20395;-78
2023/05/06 08:26:00;;;;;;;5.60;5.20;;;;;;;;;;4991658;28;20391;-78
2023/05/06 08:28:28;;;;;;;6.53;5.93;;;;;;;;;;4991085;28;20426;-79
2023/05/06 08:30:54;;;;;;;7.53;6.82;;;;;;;;;;4991522;28;20808;-79
2023/05/06 08:33:20;;;;;;;7.32;6.63;;;;;;;;;;4991739;28;20390;-79
2023/05/06 08:35:46;;;;;;;7.47;6.78;;;;;;;;;;4992196;28;20379;-79
2023/05/06 08:38:12;;;;;;;5.90;5.47;;;;;;;;;;4992402;28;20382;-79
2023/05/06 08:40:41;;;;;;;5.85;5.35;;;;;;;;;;4990980;28;20825;-79
2023/05/06 08:43:11;;;;;;;6.00;5.32;;;;;;;;;;4991841;28;20442;-79
2023/05/06 08:45:37;;;;;;;7.00;6.40;;;;;;;;;;5002349;28;20785;-79
2023/05/06 08:48:03;;;;;;;6.88;6.18;;;;;;;;;;4990771;28;20452;-80
2023/05/06 08:50:29;;;;;;;7.40;6.60;;;;;;;;;;4990761;28;20406;-79
2023/05/06 08:52:55;;;;;;;8.48;7.45;;;;;;;;;;4992006;28;20390;-79
2023/05/06 08:55:22;;;;;;;7.18;6.47;;;;;;;;;;4991768;28;20391;-80
2023/05/06 08:57:48;;;;;;;7.10;6.40;;;;;;;;;;4991674;28;20497;-79
2023/05/06 09:00:15;;;;;;;7.13;6.43;;;;;;;;;;4992127;28;20386;-80
2023/05/06 09:02:41;;;;;;;7.80;7.00;;;;;;;;;;4991709;28;20478;-79
2023/05/06 09:05:09;;;;;;;9.85;7.43;;;;;;;;;;4991335;28;20448;-80
2023/05/06 09:07:35;;;;;;;7.38;6.65;;;;;;;;;;4991672;28;20389;-79
2023/05/06 09:10:05;;;;;;;9.80;8.48;;;;;;;;;;4990481;28;20995;-79
2023/05/06 09:12:31;;;;;;;9.65;7.60;;;;;;;;;;4991099;28;20401;-79
2023/05/06 09:14:57;;;;;;;4.55;4.05;;;;;;;;;;4991468;28;20477;-79
2023/05/06 09:17:25;;;;;;;3.67;3.37;;;;;;;;;;4991347;28;20501;-80
2023/05/06 09:19:52;;;;;;;4.07;3.40;;;;;;;;;;4990947;28;20393;-79
2023/05/06 09:22:20;;;;;;;5.00;3.97;;;;;;;;;;4991635;28;20837;-80
2023/05/06 09:24:51;;;;;;;3.83;3.42;;;;;;;;;;4991755;28;20404;-80
2023/05/06 09:27:20;;;;;;;3.17;2.50;;;;;;;;;;4991716;28;20466;-79
2023/05/06 09:29:59;;;;;;;3.50;2.67;;;;;;;;;;4991630;28;20464;-79
2023/05/06 09:32:25;;;;;;;3.13;2.20;;;;;;;;;;4990938;28;20382;-79
2023/05/06 09:34:51;;;;;;;6.03;4.50;;;;;;;;;;4990631;28;20382;-79
2023/05/06 09:37:19;;;;;;;5.20;4.70;;;;;;;;;;4990267;28;20414;-79
2023/05/06 09:39:45;;;;;;;4.13;3.65;;;;;;;;;;4988136;28;20393;-80
2023/05/06 09:42:12;;;;;;;3.85;3.45;;;;;;;;;;4992692;28;20386;-80
2023/05/06 09:44:38;;;;;;;4.45;2.85;;;;;;;;;;4988628;28;20876;-80
2023/05/06 09:47:04;;;;;;;2.50;1.87;;;;;;;;;;4988015;28;20452;-79
2023/05/06 09:49:30;;;;;;;3.17;1.80;;;;;;;;;;4989685;28;20465;-79
2023/05/06 09:51:57;;;;;;;4.63;3.80;;;;;;;;;;4990000;28;20391;-80
2023/05/06 09:54:24;;;;;;;4.13;3.72;;;;;;;;;;4989851;28;20390;-80
2023/05/06 09:56:51;;;;;;;3.30;3.00;;;;;;;;;;4989818;28;20406;-79
2023/05/06 09:59:17;;;;;;;2.60;2.40;;;;;;;;;;4992908;28;20418;-79
2023/05/06 10:01:44;;;;;;;4.23;2.40;;;;;;;;;;4994265;28;20848;-80
2023/05/06 10:04:11;;;;;;;1.92;1.60;;;;;;;;;;4994878;28;20386;-80
2023/05/06 10:06:40;;;;;;;3.55;1.80;;;;;;;;;;4994445;28;20380;-79
2023/05/06 10:09:07;;;;;;;2.00;1.75;;;;;;;;;;4994805;28;20441;-79
2023/05/06 10:11:33;;;;;;;3.75;1.95;;;;;;;;;;4994498;28;20401;-79
2023/05/06 10:13:59;;;;;;;1.95;1.80;;;;;;;;;;4994793;28;20465;-79
2023/05/06 10:16:26;;;;;;;2.00;1.60;;;;;;;;;;4994490;28;20895;-79
2023/05/06 10:18:54;;;;;;;1.90;1.50;;;;;;;;;;4991238;28;20458;-79
2023/05/06 10:21:21;;;;;;;3.30;1.85;;;;;;;;;;4993326;28;20382;-79
2023/05/06 10:23:51;;;;;;;2.67;2.15;;;;;;;;;;4994323;28;20383;-79
2023/05/06 10:26:18;;;;;;;2.10;1.45;;;;;;;;;;4994623;28;20386;-79
2023/05/06 10:28:48;;;;;;;1.90;1.33;;;;;;;;;;4994495;28;20441;-79
2023/05/06 10:31:14;;;;;;;1.67;1.27;;;;;;;;;;4994404;28;20382;-78
2023/05/06 10:33:42;;;;;;;4.53;3.00;;;;;;;;;;4994483;28;20410;-79
2023/05/06 10:36:15;;;;;;;1.90;1.58;;;;;;;;;;4994334;28;20939;-78
2023/05/06 10:38:42;;;;;;;1.83;1.38;;;;;;;;;;4994474;28;20860;-80
2023/05/06 10:41:09;;;;;;;2.83;1.60;;;;;;;;;;4994128;28;20390;-80
2023/05/06 10:43:40;;;;;;;2.80;2.00;;;;;;;;;;4993962;28;20418;-80
2023/05/06 10:46:10;;;;;;;2.90;1.88;;;;;;;;;;4994095;28;20401;-80
2023/05/06 10:48:37;;;;;;;3.53;1.98;;;;;;;;;;4993983;28;20433;-80
2023/05/06 10:51:18;;;;;;;2.65;1.45;;;;;;;;;;4994078;28;20646;-79
2023/05/06 10:54:03;;;;;;;3.05;1.92;;;;;;;;;;4996453;28;20379;-79
2023/05/06 10:56:33;;;;;;;3.55;2.85;;;;;;;;;;4993736;28;20505;-79
2023/05/06 10:59:10;;;;;;;5.68;3.85;;;;;;;;;;4993831;28;20379;-80
2023/05/06 11:01:37;;;;;;;7.10;4.22;;;;;;;;;;4993705;28;20386;-80
2023/05/06 11:04:07;;;;;;;4.18;1.88;;;;;;;;;;4993670;28;20386;-79
2023/05/06 11:06:35;;;;;;;2.40;1.40;;;;;;;;;;4993669;28;20378;-80
2023/05/06 11:09:03;;;;;;;2.70;2.03;;;;;;;;;;4993288;28;20413;-79
2023/05/06 11:11:47;;;;;;;2.63;1.70;;;;;;;;;;4993507;28;20465;-79
2023/05/06 11:14:14;;;;;;;1.63;1.20;;;;;;;;;;4993480;28;20390;-79
2023/05/06 11:16:47;;;;;;;2.10;1.15;;;;;;;;;;4993429;28;20536;-80
2023/05/06 11:19:22;;;;;;;2.50;2.30;;;;;;;;;;4993457;28;20449;-79
2023/05/06 11:21:49;;;;;;;3.03;1.80;;;;;;;;;;4993423;28;20418;-79
2023/05/06 11:24:21;;;;;;;2.58;1.58;;;;;;;;;;4993326;28;20416;-80
2023/05/06 11:26:47;;;;;;;2.65;2.00;;;;;;;;;;4993268;28;20401;-79
2023/05/06 11:29:15;;;;;;;2.55;1.90;;;;;;;;;;4993008;28;20390;-79
2023/05/06 11:31:42;;;;;;;3.92;1.73;;;;;;;;;;4992987;28;20433;-79
2023/05/06 11:34:09;;;;;;;2.78;1.50;;;;;;;;;;4993080;28;20445;-79
2023/05/06 11:36:36;;;;;;;2.78;1.40;;;;;;;;;;4993132;28;20898;-79
2023/05/06 11:39:07;;;;;;;2.30;1.20;;;;;;;;;;4993036;28;20926;-80
2023/05/06 11:41:33;;;;;;;2.75;1.40;;;;;;;;;;4998752;28;20381;-79
2023/05/06 11:43:59;;;;;;;1.88;1.25;;;;;;;;;;4999336;28;20429;-79
2023/05/06 11:46:29;;;;;;;2.60;1.27;;;;;;;;;;4992820;28;20391;-79
2023/05/06 11:48:55;;;;;;;5.93;3.35;;;;;;;;;;4992861;28;20833;-79
2023/05/06 11:51:21;;;;;;;3.65;2.50;;;;;;;;;;4992971;28;20764;-79
2023/05/06 11:53:47;;;;;;;6.00;3.55;;;;;;;;;;4992640;28;20473;-79
2023/05/06 11:56:13;;;;;;;2.85;1.75;;;;;;;;;;4992446;28;20886;-79
2023/05/06 11:58:39;;;;;;;2.45;1.75;;;;;;;;;;4992722;28;20391;-79
2023/05/06 12:01:05;;;;;;;3.78;2.10;;;;;;;;;;4992566;28;20382;-79
2023/05/06 12:03:32;;;;;;;2.45;1.60;;;;;;;;;;4992506;28;20870;-80
2023/05/06 12:05:58;;;;;;;1.90;1.07;;;;;;;;;;4992607;28;20383;-79
2023/05/06 12:08:34;;;;;;;2.10;1.50;;;;;;;;;;4992097;28;20466;-79
2023/05/06 12:11:01;;;;;;;2.10;1.42;;;;;;;;;;4992237;28;20390;-80
2023/05/06 12:13:28;;;;;;;2.53;1.30;;;;;;;;;;4992250;28;20454;-80
2023/05/06 12:15:54;;;;;;;1.50;1.20;;;;;;;;;;4992455;28;20393;-79
2023/05/06 12:18:20;;;;;;;2.03;1.10;;;;;;;;;;4992324;28;20864;-79
2023/05/06 12:20:46;;;;;;;1.75;1.35;;;;;;;;;;4991748;28;20745;-79
2023/05/06 12:23:14;;;;;;;1.83;1.20;;;;;;;;;;4992132;28;20441;-79
2023/05/06 12:25:41;;;;;;;3.60;1.50;;;;;;;;;;4992008;28;20457;-79
2023/05/06 12:28:16;;;;;;;1.50;1.10;;;;;;;;;;4991995;28;20383;-79
2023/05/06 12:30:42;;;;;;;1.35;1.05;;;;;;;;;;4991389;28;20394;-79
2023/05/06 12:33:10;;;;;;;2.38;1.20;;;;;;;;;;4991309;28;20386;-79
2023/05/06 12:35:36;;;;;;;4.60;1.40;;;;;;;;;;4991896;28;20469;-80
2023/05/06 12:38:13;;;;;;;2.35;1.35;;;;;;;;;;4991999;28;20406;-79
2023/05/06 12:40:39;;;;;;;2.38;1.40;;;;;;;;;;4992000;28;20389;-79
2023/05/06 12:43:05;;;;;;;2.92;1.48;;;;;;;;;;4979698;28;20402;-79
2023/05/06 12:45:31;;;;;;;1.50;1.17;;;;;;;;;;4992027;28;20409;-79
2023/05/06 12:47:58;;;;;;;10.48;1.83;;;;;;;;;;4991818;28;20386;-79
2023/05/06 12:50:31;;;;;;;4.10;1.43;;;;;;;;;;4992215;28;20383;-83
2023/05/06 12:52:57;;;;;;;1.83;1.30;;;;;;;;;;4992001;28;20473;-79
2023/05/06 12:55:24;;;;;;;2.17;1.60;;;;;;;;;;4991723;28;20827;-80
2023/05/06 12:57:51;;;;;;;3.72;2.30;;;;;;;;;;4991469;28;20421;-79
2023/05/06 13:00:17;;;;;;;3.50;1.90;;;;;;;;;;4991835;28;20744;-79
2023/05/06 13:02:43;;;;;;;2.60;1.48;;;;;;;;;;4994210;28;20378;-80
2023/05/06 13:05:09;;;;;;;2.75;1.50;;;;;;;;;;4991857;28;20394;-79
2023/05/06 13:07:35;;;;;;;1.83;1.33;;;;;;;;;;4991873;28;20872;-79
2023/05/06 13:10:02;;;;;;;2.15;1.38;;;;;;;;;;4991650;28;20391;-79
2023/05/06 13:12:28;;;;;;;2.58;1.35;;;;;;;;;;4991663;28;20494;-79
2023/05/06 13:14:54;;;;;;;2.38;1.30;;;;;;;;;;4991667;28;20426;-79
2023/05/06 13:17:20;;;;;;;1.87;1.50;;;;;;;;;;4991641;28;20418;-79
2023/05/06 13:19:46;;;;;;;2.85;1.70;;;;;;;;;;5048861;22;20441;-82
2023/05/06 13:22:12;;;;;;;2.72;1.48;;;;;;;;;;5091022;28;20374;-83
2023/05/06 13:24:38;;;;;;;2.67;1.50;;;;;;;;;;5091042;28;20847;-83
2023/05/06 13:27:04;;;;;;;3.67;2.10;;;;;;;;;;5101886;28;20394;-82
2023/05/06 13:29:30;;;;;;;3.22;2.20;;;;;;;;;;5082970;28;20482;-80
2023/05/06 13:31:57;;;;;;;3.42;1.90;;;;;;;;;;5071776;28;20459;-83
2023/05/06 13:34:23;;;;;;;2.78;1.60;;;;;;;;;;5072771;28;20395;-82
2023/05/06 13:36:49;;;;;;;1.95;1.50;;;;;;;;;;5074298;28;20495;-83
2023/05/06 13:39:16;;;;;;;3.20;1.30;;;;;;;;;;5074508;28;20398;-84
2023/05/06 13:41:42;;;;;;;2.63;1.35;;;;;;;;;;5074247;28;20429;-84
2023/05/06 13:44:09;;;;;;;2.47;1.55;;;;;;;;;;5074500;28;20425;-83
2023/05/06 13:46:35;;;;;;;1.58;1.20;;;;;;;;;;5073036;28;20387;-83
2023/05/06 13:49:01;;;;;;;2.22;1.00;;;;;;;;;;5074303;28;20379;-83
2023/05/06 13:51:29;;;;;;;2.47;1.10;;;;;;;;;;5074227;28;20399;-83
2023/05/06 13:53:55;;;;;;;6.97;1.25;;;;;;;;;;5074265;28;21100;-85
2023/05/06 13:56:21;;;;;;;2.05;1.40;;;;;;;;;;5074064;28;20460;-84
2023/05/06 13:58:47;;;;;;;2.17;1.30;;;;;;;;;;5073907;28;20514;-84
2023/05/06 14:01:13;;;;;;;2.47;1.17;;;;;;;;;;5072887;28;20895;-84
2023/05/06 14:03:39;;;;;;;3.22;1.48;;;;;;;;;;5074049;28;20880;-84
2023/05/06 14:06:07;;;;;;;3.40;1.50;;;;;;;;;;5072672;28;20881;-84
2023/05/06 14:08:33;;;;;;;2.35;1.33;;;;;;;;;;5073814;28;20918;-84
2023/05/06 14:10:59;;;;;;;2.42;1.23;;;;;;;;;;5065123;28;20429;-84
2023/05/06 14:13:25;;;;;;;1.98;1.25;;;;;;;;;;5073711;28;20407;-83
2023/05/06 14:15:51;;;;;;;3.03;1.50;;;;;;;;;;5073474;28;20420;-84
2023/05/06 14:18:17;;;;;;;2.23;1.40;;;;;;;;;;5073845;28;20372;-85
2023/05/06 14:20:43;;;;;;;3.13;1.70;;;;;;;;;;5073347;28;20406;-86
2023/05/06 14:23:09;;;;;;;7.90;3.85;;;;;;;;;;5073409;28;20391;-85
2023/05/06 14:25:35;;;;;;;2.88;2.38;;;;;;;;;;5072195;28;21245;-86
2023/05/06 14:28:01;;;;;;;2.60;1.40;;;;;;;;;;5072344;28;20388;-84
2023/05/06 14:30:27;;;;;;;2.28;1.45;;;;;;;;;;5073548;28;20455;-84
2023/05/06 14:32:53;;;;;;;1.52;1.20;;;;;;;;;;5073596;28;20414;-86
2023/05/06 14:35:19;;;;;;;1.67;1.00;;;;;;;;;;5073569;28;20383;-85
2023/05/06 14:37:45;;;;;;;2.03;1.10;;;;;;;;;;5073260;28;20457;-85
2023/05/06 14:40:12;;;;;;;1.40;1.00;;;;;;;;;;5073366;28;20367;-85